THA777 VMMC-VHHX
Flight info
| Callsign | THA777 |
|---|---|
| Flight time | 0h 17m |
| Altitude | 6900 |
| Route | GUAVA/N0279F069 DCT CH |
| Aircraft | B772/H-SDE2E3FGHIJ5LORVWXY/LB1D1 |
Departure
| Time | 2026-04-20 15:41 |
|---|---|
| Airport | Macau International Airport (VMMC) |
Arrival
| Time | 2026-04-20 15:58 |
|---|---|
| Airport | Hong Kong International Airport Kai Tak (VHHX) |
| Time | Latitude | Longitude | Altitude | Speed | Heading |
|---|---|---|---|---|---|
| 2026-04-20 15:11 | 22.15562 | 113.57315 | 33 ft | 0 kts | 330° |
| 2026-04-20 15:21 | 22.15559 | 113.57317 | 33 ft | 3 kts | 330° |
| 2026-04-20 15:22 | 22.15536 | 113.57333 | 32 ft | 4 kts | 328° |
| 2026-04-20 15:22 | 22.15517 | 113.57343 | 32 ft | 4 kts | 4° |
| 2026-04-20 15:22 | 22.15497 | 113.57340 | 31 ft | 4 kts | 34° |
| 2026-04-20 15:22 | 22.15480 | 113.57321 | 32 ft | 4 kts | 61° |
| 2026-04-20 15:23 | 22.15472 | 113.57304 | 33 ft | 1 kts | 63° |
| 2026-04-20 15:23 | 22.15471 | 113.57301 | 33 ft | 0 kts | 63° |
| 2026-04-20 15:27 | 22.15478 | 113.57316 | 32 ft | 11 kts | 63° |
| 2026-04-20 15:27 | 22.15531 | 113.57427 | 33 ft | 17 kts | 61° |
| 2026-04-20 15:27 | 22.15596 | 113.57534 | 32 ft | 17 kts | 52° |
| 2026-04-20 15:28 | 22.15683 | 113.57623 | 33 ft | 17 kts | 34° |
| 2026-04-20 15:28 | 22.15790 | 113.57680 | 33 ft | 17 kts | 18° |
| 2026-04-20 15:28 | 22.15906 | 113.57712 | 33 ft | 17 kts | 16° |
| 2026-04-20 15:28 | 22.16021 | 113.57747 | 33 ft | 16 kts | 15° |
| 2026-04-20 15:29 | 22.16089 | 113.57791 | 33 ft | 11 kts | 57° |
| 2026-04-20 15:29 | 22.16120 | 113.57869 | 33 ft | 11 kts | 69° |
| 2026-04-20 15:29 | 22.16148 | 113.57949 | 33 ft | 11 kts | 71° |
| 2026-04-20 15:29 | 22.16171 | 113.58030 | 33 ft | 11 kts | 73° |
| 2026-04-20 15:30 | 22.16194 | 113.58112 | 33 ft | 11 kts | 73° |
| 2026-04-20 15:30 | 22.16227 | 113.58198 | 33 ft | 19 kts | 71° |
| 2026-04-20 15:30 | 22.16282 | 113.58372 | 33 ft | 25 kts | 70° |
| 2026-04-20 15:30 | 22.16320 | 113.58491 | 33 ft | 0 kts | 71° |
| 2026-04-20 15:39 | 22.16322 | 113.58498 | 33 ft | 8 kts | 71° |
| 2026-04-20 15:39 | 22.16349 | 113.58586 | 33 ft | 11 kts | 74° |
| 2026-04-20 15:40 | 22.16305 | 113.58643 | 33 ft | 11 kts | 159° |
| 2026-04-20 15:40 | 22.16281 | 113.58652 | 33 ft | 0 kts | 161° |
| 2026-04-20 15:40 | 22.16093 | 113.58720 | 34 ft | 77 kts | 161° |
| 2026-04-20 15:40 | 22.15261 | 113.59029 | 94 ft | 167 kts | 161° |
| 2026-04-20 15:41 | 22.14159 | 113.59452 | 1334 ft | 165 kts | 160° |
| 2026-04-20 15:41 | 22.13109 | 113.59888 | 2758 ft | 162 kts | 159° |
| 2026-04-20 15:41 | 22.11995 | 113.60367 | 3468 ft | 188 kts | 160° |
| 2026-04-20 15:41 | 22.10656 | 113.60911 | 3887 ft | 225 kts | 161° |
| 2026-04-20 15:42 | 22.09120 | 113.61544 | 4477 ft | 249 kts | 156° |
| 2026-04-20 15:42 | 22.07790 | 113.62814 | 5309 ft | 270 kts | 122° |
| 2026-04-20 15:42 | 22.07323 | 113.64812 | 6271 ft | 286 kts | 90° |
| 2026-04-20 15:42 | 22.07689 | 113.66914 | 6854 ft | 288 kts | 77° |
| 2026-04-20 15:43 | 22.08190 | 113.69016 | 7005 ft | 288 kts | 77° |
| 2026-04-20 15:43 | 22.08685 | 113.71109 | 7002 ft | 289 kts | 77° |
| 2026-04-20 15:43 | 22.09167 | 113.73212 | 7004 ft | 290 kts | 78° |
| 2026-04-20 15:43 | 22.09638 | 113.75331 | 7001 ft | 290 kts | 78° |
| 2026-04-20 15:44 | 22.10097 | 113.77447 | 7004 ft | 289 kts | 78° |
| 2026-04-20 15:44 | 22.10547 | 113.79559 | 7001 ft | 289 kts | 79° |
| 2026-04-20 15:44 | 22.10990 | 113.81670 | 6994 ft | 288 kts | 79° |
| 2026-04-20 15:44 | 22.11429 | 113.83777 | 7003 ft | 288 kts | 79° |
| 2026-04-20 15:45 | 22.11867 | 113.85889 | 7006 ft | 289 kts | 79° |
| 2026-04-20 15:45 | 22.12304 | 113.88005 | 7004 ft | 289 kts | 79° |
| 2026-04-20 15:45 | 22.12741 | 113.90124 | 7007 ft | 290 kts | 79° |
| 2026-04-20 15:45 | 22.13178 | 113.92244 | 7001 ft | 290 kts | 79° |
| 2026-04-20 15:46 | 22.13614 | 113.94370 | 7000 ft | 290 kts | 79° |
| 2026-04-20 15:46 | 22.14050 | 113.96491 | 6998 ft | 290 kts | 79° |
| 2026-04-20 15:46 | 22.14487 | 113.98618 | 7010 ft | 290 kts | 79° |
| 2026-04-20 15:46 | 22.14950 | 114.00729 | 6986 ft | 285 kts | 73° |
| 2026-04-20 15:47 | 22.15968 | 114.02550 | 6931 ft | 285 kts | 45° |
| 2026-04-20 15:47 | 22.17588 | 114.03658 | 6776 ft | 282 kts | 19° |
| 2026-04-20 15:47 | 22.19581 | 114.03910 | 6737 ft | 289 kts | 354° |
| 2026-04-20 15:47 | 22.21485 | 114.03289 | 6727 ft | 290 kts | 325° |
| 2026-04-20 15:48 | 22.22774 | 114.01715 | 6719 ft | 276 kts | 291° |
| 2026-04-20 15:48 | 22.22998 | 113.99756 | 6700 ft | 264 kts | 256° |
| 2026-04-20 15:48 | 22.22425 | 113.97967 | 6531 ft | 248 kts | 249° |
| 2026-04-20 15:48 | 22.22013 | 113.96171 | 6366 ft | 243 kts | 258° |
| 2026-04-20 15:49 | 22.21804 | 113.94381 | 6230 ft | 237 kts | 262° |
| 2026-04-20 15:49 | 22.21685 | 113.92639 | 6118 ft | 229 kts | 264° |
| 2026-04-20 15:49 | 22.21600 | 113.90951 | 6057 ft | 224 kts | 264° |
| 2026-04-20 15:49 | 22.21675 | 113.89292 | 5896 ft | 226 kts | 285° |
| 2026-04-20 15:50 | 22.22537 | 113.87897 | 5725 ft | 226 kts | 319° |
| 2026-04-20 15:50 | 22.23944 | 113.87194 | 5523 ft | 224 kts | 350° |
| 2026-04-20 15:50 | 22.25461 | 113.87313 | 5396 ft | 217 kts | 17° |
| 2026-04-20 15:50 | 22.26744 | 113.88074 | 5291 ft | 207 kts | 42° |
| 2026-04-20 15:51 | 22.27779 | 113.89149 | 5080 ft | 206 kts | 47° |
| 2026-04-20 15:51 | 22.28765 | 113.90242 | 4935 ft | 201 kts | 48° |
| 2026-04-20 15:51 | 22.29748 | 113.91314 | 4790 ft | 202 kts | 46° |
| 2026-04-20 15:51 | 22.30769 | 113.92360 | 4647 ft | 204 kts | 45° |
| 2026-04-20 15:52 | 22.31579 | 113.93548 | 4506 ft | 194 kts | 75° |
| 2026-04-20 15:52 | 22.31828 | 113.94963 | 4453 ft | 197 kts | 84° |
| 2026-04-20 15:52 | 22.32057 | 113.96412 | 4181 ft | 190 kts | 86° |
| 2026-04-20 15:53 | 22.32277 | 113.99104 | 3736 ft | 176 kts | 91° |
| 2026-04-20 15:53 | 22.32344 | 114.00416 | 3486 ft | 172 kts | 91° |
| 2026-04-20 15:53 | 22.32408 | 114.01652 | 3261 ft | 156 kts | 92° |
| 2026-04-20 15:53 | 22.32462 | 114.02746 | 3029 ft | 134 kts | 92° |
| 2026-04-20 15:54 | 22.32508 | 114.03765 | 2916 ft | 140 kts | 91° |
| 2026-04-20 15:54 | 22.32564 | 114.04789 | 2714 ft | 134 kts | 91° |
| 2026-04-20 15:54 | 22.32612 | 114.05781 | 2535 ft | 133 kts | 92° |
| 2026-04-20 15:54 | 22.32661 | 114.06789 | 2368 ft | 134 kts | 92° |
| 2026-04-20 15:55 | 22.32710 | 114.07783 | 2173 ft | 132 kts | 92° |
| 2026-04-20 15:55 | 22.32759 | 114.08772 | 1995 ft | 132 kts | 91° |
| 2026-04-20 15:55 | 22.32808 | 114.09753 | 1831 ft | 131 kts | 91° |
| 2026-04-20 15:55 | 22.32856 | 114.10736 | 1646 ft | 131 kts | 91° |
| 2026-04-20 15:56 | 22.32904 | 114.11705 | 1479 ft | 131 kts | 90° |
| 2026-04-20 15:56 | 22.32962 | 114.12688 | 1317 ft | 131 kts | 89° |
| 2026-04-20 15:56 | 22.33046 | 114.13685 | 1139 ft | 131 kts | 87° |
| 2026-04-20 15:56 | 22.33139 | 114.14656 | 959 ft | 132 kts | 86° |
| 2026-04-20 15:57 | 22.33218 | 114.15629 | 794 ft | 129 kts | 88° |
| 2026-04-20 15:57 | 22.33253 | 114.16602 | 618 ft | 129 kts | 91° |
| 2026-04-20 15:57 | 22.33246 | 114.17554 | 509 ft | 126 kts | 93° |
| 2026-04-20 15:57 | 22.33078 | 114.18488 | 362 ft | 127 kts | 115° |
| 2026-04-20 15:58 | 22.32538 | 114.19236 | 172 ft | 126 kts | 133° |
| 2026-04-20 15:58 | 22.31944 | 114.19908 | 43 ft | 121 kts | 134° |
| 2026-04-20 15:58 | 22.31454 | 114.20457 | 41 ft | 77 kts | 134° |
| 2026-04-20 15:58 | 22.31209 | 114.20732 | 41 ft | 33 kts | 134° |
| 2026-04-20 15:59 | 22.31039 | 114.20921 | 41 ft | 44 kts | 134° |
| 2026-04-20 15:59 | 22.30852 | 114.21161 | 41 ft | 27 kts | 119° |
| 2026-04-20 15:59 | 22.30858 | 114.21262 | 41 ft | 7 kts | 12° |
| 2026-04-20 15:59 | 22.30902 | 114.21237 | 41 ft | 7 kts | 313° |
| 2026-04-20 16:00 | 22.30969 | 114.21155 | 41 ft | 18 kts | 314° |
| 2026-04-20 16:00 | 22.31026 | 114.21089 | 40 ft | 18 kts | 313° |
| 2026-04-20 16:00 | 22.31114 | 114.20992 | 40 ft | 18 kts | 314° |
| 2026-04-20 16:00 | 22.31159 | 114.20945 | 38 ft | 0 kts | 329° |
| 2026-04-20 16:01 | 22.31167 | 114.20938 | 41 ft | 12 kts | 317° |
| 2026-04-20 16:01 | 22.31257 | 114.20834 | 41 ft | 20 kts | 311° |
| 2026-04-20 16:01 | 22.31351 | 114.20727 | 41 ft | 20 kts | 314° |
| 2026-04-20 16:01 | 22.31432 | 114.20635 | 41 ft | 16 kts | 314° |
| 2026-04-20 16:02 | 22.31511 | 114.20549 | 40 ft | 16 kts | 314° |
| 2026-04-20 16:02 | 22.31589 | 114.20461 | 41 ft | 16 kts | 314° |
| 2026-04-20 16:02 | 22.31667 | 114.20374 | 41 ft | 16 kts | 314° |
| 2026-04-20 16:02 | 22.31745 | 114.20286 | 41 ft | 16 kts | 314° |
| 2026-04-20 16:03 | 22.31822 | 114.20199 | 41 ft | 16 kts | 314° |
| 2026-04-20 16:03 | 22.31900 | 114.20112 | 41 ft | 16 kts | 315° |
| 2026-04-20 16:03 | 22.31979 | 114.20024 | 41 ft | 16 kts | 313° |
| 2026-04-20 16:03 | 22.32060 | 114.19934 | 41 ft | 19 kts | 314° |
| 2026-04-20 16:04 | 22.32158 | 114.19824 | 41 ft | 23 kts | 314° |
| 2026-04-20 16:04 | 22.32277 | 114.19691 | 40 ft | 25 kts | 314° |
| 2026-04-20 16:04 | 22.32404 | 114.19563 | 41 ft | 25 kts | 317° |
| 2026-04-20 16:04 | 22.32509 | 114.19459 | 40 ft | 11 kts | 317° |
| 2026-04-20 16:05 | 22.32545 | 114.19424 | 39 ft | 7 kts | 317° |
| 2026-04-20 16:05 | 22.32587 | 114.19404 | 41 ft | 7 kts | 351° |
| 2026-04-20 16:05 | 22.32627 | 114.19378 | 41 ft | 7 kts | 315° |
| 2026-04-20 16:05 | 22.32650 | 114.19353 | 41 ft | 3 kts | 314° |
| 2026-04-20 16:06 | 22.32654 | 114.19348 | 42 ft | 0 kts | 314° |